Time;durP1;ratioP1;P1;durP2;ratioP2;P2;SDS_P1;SDS_P2;PMS_P1;PMS_P2;Temp;Humidity;BMP_temperature;BMP_pressure;BME280_temperature;BME280_humidity;BME280_pressure;Samples;Min_cycle;Max_cycle;Signal;HPM_P1;HPM_P2
2023/06/16 00:01:31;;;;;;;;;;;14.40;99.90;;;;;;5055664;28;20032;-73
2023/06/16 00:04:03;;;;;;;0.60;0.60;;;14.40;99.90;;;;;;5072532;28;19963;-73
2023/06/16 00:06:29;;;;;;;0.60;0.60;;;14.30;99.90;;;;;;5088943;28;20482;-74
2023/06/16 00:08:56;;;;;;;0.45;0.45;;;14.40;99.90;;;;;;5089780;28;20032;-74
2023/06/16 00:11:22;;;;;;;0.45;0.45;;;14.30;99.90;;;;;;5089205;28;20032;-74
2023/06/16 00:13:49;;;;;;;0.77;0.77;;;14.20;99.90;;;;;;5072167;28;20064;-73
2023/06/16 00:16:19;;;;;;;0.52;0.52;;;14.30;99.90;;;;;;5088458;28;20044;-73
2023/06/16 00:18:46;;;;;;;0.77;0.77;;;14.30;99.90;;;;;;5088761;28;20108;-73
2023/06/16 00:21:19;;;;;;;1.52;0.90;;;14.20;99.90;;;;;;5088484;28;20039;-73
2023/06/16 00:23:48;;;;;;;1.00;0.95;;;14.20;99.90;;;;;;5088541;28;20096;-74
2023/06/16 00:26:14;;;;;;;0.73;0.73;;;14.20;99.90;;;;;;5088114;28;20044;-74
2023/06/16 00:28:40;;;;;;;;;;;14.20;99.90;;;;;;5122506;27;20056;-74
2023/06/16 00:31:06;;;;;;;0.43;0.43;;;14.20;99.90;;;;;;5088433;28;19916;-74
2023/06/16 00:33:32;;;;;;;;;;;14.30;99.90;;;;;;5122594;27;20047;-74
2023/06/16 00:35:57;;;;;;;1.00;0.90;;;14.30;99.90;;;;;;5087795;28;19920;-74
2023/06/16 00:38:23;;;;;;;;;;;14.30;99.90;;;;;;5088315;28;20040;-74
2023/06/16 00:40:49;;;;;;;0.50;0.50;;;14.30;99.90;;;;;;5071745;28;19920;-75
2023/06/16 00:43:14;;;;;;;0.35;0.35;;;14.30;99.90;;;;;;5072063;28;20051;-74
2023/06/16 00:45:40;;;;;;;;;;;14.30;99.90;;;;;;5071267;28;20481;-74
2023/06/16 00:48:06;;;;;;;0.40;0.40;;;14.40;99.90;;;;;;5122197;27;19973;-74
2023/06/16 00:50:32;;;;;;;0.30;0.30;;;14.40;99.90;;;;;;5088055;28;20042;-74
2023/06/16 00:52:58;;;;;;;0.25;0.25;;;14.40;99.90;;;;;;5071149;28;20199;-74
2023/06/16 00:55:24;;;;;;;;;;;14.40;99.90;;;;;;5088143;28;20085;-74
2023/06/16 00:57:53;;;;;;;0.50;0.50;;;14.40;99.90;;;;;;5088141;28;19920;-75
2023/06/16 01:00:20;;;;;;;0.63;0.30;;;14.40;99.90;;;;;;5087745;28;20055;-75
2023/06/16 01:02:47;;;;;;;0.38;0.38;;;14.50;99.90;;;;;;5054954;28;20044;-75
2023/06/16 01:05:19;;;;;;;0.60;0.60;;;14.40;99.90;;;;;;5088242;28;20489;-75
2023/06/16 01:07:59;;;;;;;0.85;0.85;;;14.40;99.90;;;;;;5088210;28;20138;-75
2023/06/16 01:10:52;;;;;;;0.68;0.60;;;14.40;99.90;;;;;;5088420;28;20247;-75
2023/06/16 01:13:37;;;;;;;0.95;0.85;;;14.40;99.90;;;;;;5092315;28;20352;-75
2023/06/16 01:16:07;;;;;;;0.40;0.30;;;14.40;99.90;;;;;;5075060;28;20048;-75
2023/06/16 01:18:33;;;;;;;0.40;0.40;;;14.40;99.90;;;;;;5088448;28;20522;-75
2023/06/16 01:21:21;;;;;;;0.22;0.22;;;14.40;99.90;;;;;;5072126;28;20402;-75
2023/06/16 01:24:04;;;;;;;0.50;0.50;;;14.30;99.90;;;;;;5072133;28;20041;-75
2023/06/16 01:26:31;;;;;;;0.65;0.65;;;14.30;99.90;;;;;;5120732;27;20048;-75
2023/06/16 01:29:02;;;;;;;0.30;0.30;;;14.20;99.90;;;;;;5109396;28;20063;-75
2023/06/16 01:31:31;;;;;;;1.30;1.27;;;14.10;99.90;;;;;;5092543;28;20179;-75
2023/06/16 01:33:59;;;;;;;0.40;0.30;;;14.10;99.90;;;;;;5126849;27;20036;-75
2023/06/16 01:36:25;;;;;;;0.30;0.30;;;14.00;99.90;;;;;;5092237;28;20048;-75
2023/06/16 01:38:53;;;;;;;0.63;0.63;;;14.00;99.90;;;;;;5091824;28;20043;-75
2023/06/16 01:41:19;;;;;;;0.20;0.20;;;13.90;99.90;;;;;;5091726;28;20147;-75
2023/06/16 01:43:46;;;;;;;0.32;0.32;;;13.90;99.90;;;;;;5091589;28;20130;-75
2023/06/16 01:46:13;;;;;;;0.32;0.32;;;13.80;99.90;;;;;;5091692;28;20502;-75
2023/06/16 01:48:39;;;;;;;0.45;0.45;;;13.80;99.90;;;;;;5091966;28;20036;-75
2023/06/16 01:51:05;;;;;;;;;;;13.70;99.90;;;;;;5075428;28;20040;-74
2023/06/16 01:53:31;;;;;;;0.20;0.20;;;13.70;99.90;;;;;;5091451;28;20297;-75
2023/06/16 01:55:56;;;;;;;;;;;13.70;99.90;;;;;;5092370;28;20047;-74
2023/06/16 01:58:25;;;;;;;0.60;0.60;;;13.60;99.90;;;;;;5091710;28;20323;-75
2023/06/16 02:01:04;;;;;;;0.65;0.65;;;13.60;99.90;;;;;;5091100;28;20044;-75
2023/06/16 02:03:46;;;;;;;0.60;0.60;;;13.50;99.90;;;;;;5091249;28;20047;-75
2023/06/16 02:06:21;;;;;;;0.85;0.82;;;13.60;99.90;;;;;;5091387;28;20458;-75
2023/06/16 02:08:50;;;;;;;0.35;0.35;;;13.50;99.90;;;;;;5090994;28;20047;-75
2023/06/16 02:11:16;;;;;;;0.28;0.28;;;13.40;99.90;;;;;;5058542;28;20063;-75
2023/06/16 02:13:45;;;;;;;;;;;13.40;99.90;;;;;;5091144;28;20075;-75
2023/06/16 02:16:12;;;;;;;0.20;0.20;;;13.30;99.90;;;;;;5091220;28;19920;-75
2023/06/16 02:18:39;;;;;;;1.02;1.02;;;13.30;99.90;;;;;;5090537;28;20048;-75
2023/06/16 02:21:04;;;;;;;0.30;0.30;;;13.20;99.90;;;;;;5090697;28;20105;-75
2023/06/16 02:23:30;;;;;;;;;;;13.20;99.90;;;;;;5091003;28;20048;-75
2023/06/16 02:25:56;;;;;;;0.30;0.30;;;13.20;99.90;;;;;;5070641;28;19931;-75
2023/06/16 02:28:22;;;;;;;0.40;0.40;;;13.10;99.90;;;;;;5104195;28;20063;-75
2023/06/16 02:30:47;;;;;;;0.40;0.40;;;13.00;99.90;;;;;;5070081;28;20041;-75
2023/06/16 02:33:13;;;;;;;;;;;12.90;99.90;;;;;;5070932;28;20036;-74
2023/06/16 02:35:39;;;;;;;0.28;0.28;;;12.90;99.90;;;;;;5123955;27;19916;-74
2023/06/16 02:38:05;;;;;;;0.45;0.45;;;12.90;99.90;;;;;;5074228;28;20499;-75
2023/06/16 02:40:30;;;;;;;0.22;0.22;;;12.80;99.90;;;;;;5073709;28;20145;-75
2023/06/16 02:42:56;;;;;;;;;;;12.90;99.90;;;;;;5091102;28;20437;-75
2023/06/16 02:45:22;;;;;;;0.32;0.32;;;12.90;99.90;;;;;;5090179;28;19924;-75
2023/06/16 02:47:47;;;;;;;0.40;0.40;;;12.90;99.90;;;;;;5089779;28;20024;-75
2023/06/16 02:50:13;;;;;;;0.38;0.38;;;12.90;99.90;;;;;;5090621;28;20036;-75
2023/06/16 02:52:41;;;;;;;;;;;12.90;99.90;;;;;;5105502;28;20550;-75
2023/06/16 02:55:08;;;;;;;;;;;12.90;99.90;;;;;;5108353;27;19920;-75
2023/06/16 02:57:34;;;;;;;1.05;1.05;;;12.90;99.90;;;;;;5072742;28;20006;-74
2023/06/16 02:59:59;;;;;;;0.77;0.70;;;12.90;99.90;;;;;;5072630;28;20115;-75
2023/06/16 03:02:25;;;;;;;0.52;0.52;;;12.90;99.90;;;;;;5106609;28;20067;-75
2023/06/16 03:04:51;;;;;;;0.88;0.88;;;12.90;99.90;;;;;;5122904;27;20055;-75
2023/06/16 03:07:17;;;;;;;1.10;0.98;;;12.90;99.90;;;;;;5089537;28;20040;-74
2023/06/16 03:09:45;;;;;;;0.75;0.75;;;12.90;99.90;;;;;;5072116;28;20076;-75
2023/06/16 03:12:11;;;;;;;0.20;0.20;;;13.00;99.90;;;;;;5090096;28;20382;-75
2023/06/16 03:14:36;;;;;;;;;;;13.00;99.90;;;;;;5090281;28;20079;-75
2023/06/16 03:17:02;;;;;;;0.45;0.45;;;13.00;99.90;;;;;;5072950;28;20299;-75
2023/06/16 03:19:28;;;;;;;0.73;0.73;;;13.00;99.90;;;;;;5073234;28;20040;-74
2023/06/16 03:21:54;;;;;;;0.30;0.30;;;13.00;99.90;;;;;;5072875;28;20139;-75
2023/06/16 03:24:19;;;;;;;0.43;0.43;;;13.00;99.90;;;;;;5056273;28;20252;-75
2023/06/16 03:26:46;;;;;;;0.75;0.75;;;13.00;99.90;;;;;;5069157;28;20132;-75
2023/06/16 03:29:12;;;;;;;0.35;0.35;;;12.90;99.90;;;;;;5103139;28;20098;-75
2023/06/16 03:31:39;;;;;;;0.88;0.70;;;13.00;99.90;;;;;;5069075;28;20048;-74
2023/06/16 03:34:05;;;;;;;0.50;0.50;;;13.00;99.90;;;;;;5075508;28;20034;-75
2023/06/16 03:36:39;;;;;;;;;;;13.10;99.90;;;;;;5090164;28;20097;-74
2023/06/16 03:39:05;;;;;;;1.58;1.48;;;13.20;99.90;;;;;;5089609;28;19961;-75
2023/06/16 03:41:33;;;;;;;1.48;1.00;;;13.20;99.90;;;;;;5072569;28;20131;-75
2023/06/16 03:43:59;;;;;;;0.98;0.68;;;13.30;99.90;;;;;;5090366;28;20493;-75
2023/06/16 03:46:24;;;;;;;0.75;0.60;;;13.40;99.90;;;;;;5089337;28;20032;-75
2023/06/16 03:48:50;;;;;;;1.63;1.52;;;13.40;99.90;;;;;;5071968;28;20040;-75
2023/06/16 03:51:16;;;;;;;;;;;13.40;99.90;;;;;;5076219;28;20036;-75
2023/06/16 03:53:43;;;;;;;0.65;0.65;;;13.50;99.90;;;;;;5101198;28;20062;-75
2023/06/16 03:56:09;;;;;;;3.03;0.57;;;13.60;99.90;;;;;;5072327;28;20055;-75
2023/06/16 03:58:35;;;;;;;1.23;1.13;;;13.60;99.90;;;;;;5071851;28;20119;-75
2023/06/16 04:01:02;;;;;;;2.40;2.25;;;13.70;99.90;;;;;;5088925;28;20385;-75
2023/06/16 04:03:27;;;;;;;1.27;1.17;;;13.70;99.90;;;;;;5089493;28;20051;-75
2023/06/16 04:05:53;;;;;;;;;;;13.80;99.90;;;;;;5089511;28;20409;-75
2023/06/16 04:08:20;;;;;;;1.48;1.38;;;13.90;99.90;;;;;;5073504;28;20351;-75
2023/06/16 04:10:46;;;;;;;4.10;1.10;;;13.90;99.90;;;;;;5089553;28;20046;-75
2023/06/16 04:13:12;;;;;;;1.08;0.65;;;14.00;99.90;;;;;;5072294;28;20377;-75
2023/06/16 04:15:38;;;;;;;0.50;0.50;;;14.00;99.90;;;;;;5088502;28;20184;-75
2023/06/16 04:18:03;;;;;;;;;;;14.10;99.90;;;;;;5089307;28;20134;-75
2023/06/16 04:20:29;;;;;;;1.48;1.15;;;14.20;99.90;;;;;;5071578;28;19931;-72
2023/06/16 04:22:55;;;;;;;0.40;0.40;;;14.20;99.90;;;;;;5054750;28;20047;-73
2023/06/16 04:25:21;;;;;;;;;;;14.30;99.90;;;;;;5085856;28;20101;-73
2023/06/16 04:27:49;;;;;;;1.70;1.20;;;14.40;99.90;;;;;;5051183;28;19921;-73
2023/06/16 04:30:22;;;;;;;1.73;1.50;;;14.40;99.90;;;;;;5068730;28;20049;-74
2023/06/16 04:32:49;;;;;;;3.20;2.45;;;14.50;99.90;;;;;;5068059;28;20051;-73
2023/06/16 04:35:15;;;;;;;1.15;1.15;;;14.60;99.90;;;;;;5084489;28;20042;-73
2023/06/16 04:37:41;;;;;;;0.73;0.73;;;14.60;99.90;;;;;;5087882;28;20099;-74
2023/06/16 04:40:08;;;;;;;1.08;1.05;;;14.70;99.90;;;;;;5071298;28;20078;-73
2023/06/16 04:42:34;;;;;;;0.98;0.90;;;14.70;99.90;;;;;;5071639;28;20457;-74
2023/06/16 04:45:00;;;;;;;2.40;1.48;;;14.70;99.90;;;;;;5086248;28;20134;-74
2023/06/16 04:47:26;;;;;;;;;;;14.80;99.90;;;;;;5072350;28;20134;-74
2023/06/16 04:49:51;;;;;;;1.70;0.68;;;14.90;99.90;;;;;;5088148;28;19923;-74
2023/06/16 04:52:17;;;;;;;1.88;1.75;;;14.90;99.90;;;;;;5071323;28;20043;-74
2023/06/16 04:54:43;;;;;;;;;;;14.90;99.90;;;;;;5088177;28;20438;-74
2023/06/16 04:57:09;;;;;;;1.60;1.27;;;15.00;99.90;;;;;;5088361;28;19920;-74
2023/06/16 04:59:35;;;;;;;;;;;15.10;99.90;;;;;;5088178;28;20496;-74
2023/06/16 05:02:00;;;;;;;1.30;1.00;;;15.20;99.90;;;;;;5070797;28;19916;-74
2023/06/16 05:04:26;;;;;;;;;;;15.20;99.90;;;;;;5088426;28;20048;-74
2023/06/16 05:06:52;;;;;;;2.35;2.15;;;15.30;99.90;;;;;;5087443;28;19927;-74
2023/06/16 05:09:19;;;;;;;;;;;15.30;99.90;;;;;;5088593;28;20044;-74
2023/06/16 05:11:45;;;;;;;3.80;2.20;;;15.30;99.90;;;;;;5088072;28;19916;-74
2023/06/16 05:14:11;;;;;;;;;;;15.40;99.90;;;;;;5071885;28;20528;-74
2023/06/16 05:16:37;;;;;;;1.08;1.05;;;15.50;99.90;;;;;;5088091;28;19920;-74
2023/06/16 05:19:02;;;;;;;0.55;0.55;;;15.60;99.90;;;;;;5087644;28;20495;-74
2023/06/16 05:21:28;;;;;;;;;;;15.70;99.90;;;;;;5071670;28;20059;-74
2023/06/16 05:23:53;;;;;;;0.20;0.20;;;15.80;99.90;;;;;;5070645;28;20319;-74
2023/06/16 05:26:19;;;;;;;;;;;15.90;99.90;;;;;;5084706;28;20048;-74
2023/06/16 05:28:45;;;;;;;2.40;1.48;;;16.00;99.90;;;;;;5067077;28;20003;-74
2023/06/16 05:31:11;;;;;;;;;;;16.00;99.90;;;;;;5068382;28;20510;-74
2023/06/16 05:33:36;;;;;;;3.03;1.63;;;16.10;99.90;;;;;;5087448;28;19920;-74
2023/06/16 05:36:02;;;;;;;;;;;16.10;99.90;;;;;;5071333;28;20040;-74
2023/06/16 05:38:28;;;;;;;2.80;1.77;;;16.20;99.90;;;;;;5087702;28;19962;-74
2023/06/16 05:40:53;;;;;;;;;;;16.30;99.90;;;;;;5070964;28;20052;-74
2023/06/16 05:43:19;;;;;;;1.65;1.27;;;16.40;99.90;;;;;;5087877;28;20432;-74
2023/06/16 05:45:45;;;;;;;;;;;16.40;99.90;;;;;;5070797;28;20040;-75
2023/06/16 05:48:10;;;;;;;1.23;1.15;;;16.40;99.90;;;;;;5088049;28;19961;-75
2023/06/16 05:50:36;;;;;;;;;;;16.50;99.90;;;;;;5089393;28;20358;-74
2023/06/16 05:53:02;;;;;;;1.35;1.25;;;16.60;99.90;;;;;;5083875;28;19958;-74
2023/06/16 05:55:27;;;;;;;;;;;16.70;99.90;;;;;;5088303;28;20059;-75
2023/06/16 05:57:53;;;;;;;1.45;0.98;;;16.80;99.90;;;;;;5073004;28;19916;-74
2023/06/16 06:00:19;;;;;;;;;;;16.90;99.90;;;;;;5075036;28;20039;-74
2023/06/16 06:02:45;;;;;;;1.98;1.85;;;17.00;99.90;;;;;;5090754;28;20008;-74
2023/06/16 06:05:11;;;;;;;;;;;17.10;99.90;;;;;;5074781;28;20093;-75
2023/06/16 06:07:36;;;;;;;1.70;1.33;;;17.20;99.90;;;;;;5074498;28;19915;-75
2023/06/16 06:10:02;;;;;;;;;;;17.30;99.90;;;;;;5074609;28;20036;-74
2023/06/16 06:12:28;;;;;;;1.75;1.65;;;17.40;99.90;;;;;;5091821;28;20269;-74
2023/06/16 06:14:54;;;;;;;;;;;17.40;99.90;;;;;;5074479;28;20032;-74
2023/06/16 06:17:19;;;;;;;1.27;1.23;;;17.50;99.90;;;;;;5090913;28;19916;-74
2023/06/16 06:19:45;;;;;;;;;;;17.60;99.90;;;;;;5091432;28;20527;-74
2023/06/16 06:22:11;;;;;;;1.23;1.10;;;17.70;99.90;;;;;;5090664;28;19970;-74
2023/06/16 06:24:36;;;;;;;;;;;17.80;99.90;;;;;;5091234;28;20071;-74
2023/06/16 06:27:02;;;;;;;1.42;1.33;;;17.80;99.90;;;;;;5070588;28;19920;-75
2023/06/16 06:29:28;;;;;;;;;;;17.90;99.90;;;;;;5070938;28;20057;-74
2023/06/16 06:31:54;;;;;;;0.73;0.73;;;18.00;99.90;;;;;;5053845;28;20016;-74
2023/06/16 06:34:19;;;;;;;;;;;18.10;99.90;;;;;;5063037;28;20040;-75
2023/06/16 06:36:47;;;;;;;1.55;1.33;;;18.20;99.90;;;;;;5107704;28;19916;-74
2023/06/16 06:39:13;;;;;;;1.08;1.08;;;18.30;99.90;;;;;;5108115;28;20036;-74
2023/06/16 06:41:40;;;;;;;;;;;18.30;99.90;;;;;;5091551;28;20052;-74
2023/06/16 06:44:06;;;;;;;1.15;1.10;;;18.40;99.90;;;;;;5074224;28;19931;-74
2023/06/16 06:46:31;;;;;;;;;;;18.50;99.90;;;;;;5074927;28;20550;-75
2023/06/16 06:48:57;;;;;;;0.75;0.75;;;18.60;99.90;;;;;;5073697;28;19970;-74
2023/06/16 06:51:23;;;;;;;;;;;18.70;99.90;;;;;;5097766;28;20036;-74
2023/06/16 06:53:49;;;;;;;1.27;1.10;;;18.70;99.90;;;;;;5068232;28;19965;-75
2023/06/16 06:56:15;;;;;;;;;;;18.90;99.90;;;;;;5091410;28;20052;-74
2023/06/16 06:58:41;;;;;;;0.75;0.75;;;19.00;99.90;;;;;;5090847;28;20280;-75
2023/06/16 07:01:07;;;;;;;;;;;19.10;99.90;;;;;;5073901;28;20127;-75
2023/06/16 07:03:32;;;;;;;0.82;0.82;;;19.10;99.90;;;;;;5090124;28;19920;-74
2023/06/16 07:05:58;;;;;;;;;;;19.20;99.90;;;;;;5090413;28;20107;-75
2023/06/16 07:08:24;;;;;;;1.27;0.93;;;19.30;99.90;;;;;;5072688;28;20384;-75
2023/06/16 07:10:49;;;;;;;;;;;19.50;99.90;;;;;;5089968;28;20129;-75
2023/06/16 07:13:15;;;;;;;2.33;1.55;;;19.50;99.90;;;;;;5090222;28;19930;-75
2023/06/16 07:15:41;;;;;;;0.38;0.38;;;19.50;99.90;;;;;;5090002;28;20409;-75
2023/06/16 07:18:07;;;;;;;0.45;0.45;;;19.60;99.90;;;;;;5072514;28;20043;-73
2023/06/16 07:20:32;;;;;;;;;;;19.80;99.90;;;;;;5090084;28;20387;-74
2023/06/16 07:22:58;;;;;;;0.50;0.50;;;20.00;99.90;;;;;;5072508;28;19966;-74
2023/06/16 07:25:24;;;;;;;;;;;20.00;99.90;;;;;;5069380;28;20170;-75
2023/06/16 07:27:50;;;;;;;4.30;2.15;;;20.20;99.90;;;;;;5085968;28;19924;-74
2023/06/16 07:30:15;;;;;;;;;;;20.30;99.90;;;;;;5086458;28;20048;-74
2023/06/16 07:32:41;;;;;;;0.70;0.70;;;20.30;99.90;;;;;;5071981;28;19922;-74
2023/06/16 07:35:08;;;;;;;;;;;20.40;99.90;;;;;;5072315;28;20040;-74
2023/06/16 07:37:34;;;;;;;0.52;0.32;;;20.60;99.90;;;;;;5089826;28;19923;-75
2023/06/16 07:39:59;;;;;;;0.95;0.47;;;20.70;99.90;;;;;;5088934;28;20043;-75
2023/06/16 07:42:25;;;;;;;0.63;0.63;;;20.70;99.90;;;;;;5089451;28;20454;-75
2023/06/16 07:44:52;;;;;;;0.40;0.40;;;20.70;99.90;;;;;;5072463;28;20489;-75
2023/06/16 07:47:17;;;;;;;0.60;0.60;;;20.70;99.90;;;;;;5072202;28;20075;-75
2023/06/16 07:49:43;;;;;;;1.17;1.08;;;20.80;99.90;;;;;;5072137;28;20503;-75
2023/06/16 07:52:11;;;;;;;;;;;20.90;99.90;;;;;;5082956;28;20084;-75
2023/06/16 07:54:37;;;;;;;3.13;0.75;;;20.90;99.90;;;;;;5110854;27;19977;-75
2023/06/16 07:57:03;;;;;;;1.23;1.02;;;20.90;99.90;;;;;;5123317;27;20048;-75
2023/06/16 07:59:28;;;;;;;0.50;0.50;;;21.00;99.90;;;;;;5089339;28;20036;-75
2023/06/16 08:01:54;;;;;;;0.63;0.63;;;21.00;99.90;;;;;;5105130;28;20130;-74
2023/06/16 08:04:20;;;;;;;;;;;21.10;99.90;;;;;;5123510;27;20040;-75
2023/06/16 08:06:45;;;;;;;0.38;0.38;;;21.10;99.90;;;;;;5089016;28;19928;-75
2023/06/16 08:09:12;;;;;;;0.43;0.43;;;21.20;99.80;;;;;;5122233;27;20044;-75
2023/06/16 08:11:38;;;;;;;0.73;0.73;;;21.20;98.10;;;;;;5072369;28;20044;-74
2023/06/16 08:14:04;;;;;;;0.40;0.40;;;21.30;97.00;;;;;;5122781;27;20040;-74
2023/06/16 08:16:30;;;;;;;0.43;0.43;;;21.40;97.60;;;;;;5088754;28;20485;-75
2023/06/16 08:18:56;;;;;;;0.20;0.20;;;21.40;94.70;;;;;;5071215;28;20047;-74
2023/06/16 08:21:22;;;;;;;0.45;0.45;;;21.50;95.80;;;;;;5088395;28;20044;-74
2023/06/16 08:23:48;;;;;;;1.05;0.47;;;21.60;91.70;;;;;;5072067;28;20040;-75
2023/06/16 08:26:14;;;;;;;0.63;0.63;;;21.60;91.70;;;;;;5070959;28;20048;-75
2023/06/16 08:28:40;;;;;;;0.20;0.20;;;21.70;89.90;;;;;;5122092;27;20135;-75
2023/06/16 08:31:06;;;;;;;0.65;0.65;;;21.70;85.80;;;;;;5071239;28;20047;-75
2023/06/16 08:33:32;;;;;;;0.80;0.77;;;21.70;89.30;;;;;;5071685;28;20044;-74
2023/06/16 08:35:58;;;;;;;0.20;0.20;;;21.80;83.20;;;;;;5071300;28;20430;-75
2023/06/16 08:38:24;;;;;;;1.02;0.45;;;21.80;85.80;;;;;;5088170;28;20260;-75
2023/06/16 08:40:50;;;;;;;0.15;0.15;;;21.80;87.20;;;;;;5071530;28;20040;-75
2023/06/16 08:43:17;;;;;;;0.68;0.68;;;21.90;87.20;;;;;;5071208;28;20048;-75
2023/06/16 08:45:46;;;;;;;0.52;0.52;;;22.00;86.40;;;;;;5088435;28;20047;-75
2023/06/16 08:48:11;;;;;;;2.95;1.85;;;22.10;87.50;;;;;;5087721;28;20039;-75
2023/06/16 08:50:38;;;;;;;0.40;0.40;;;22.10;83.10;;;;;;5088039;28;20036;-75
2023/06/16 08:53:06;;;;;;;1.83;0.68;;;22.20;86.40;;;;;;5086741;28;20039;-76
2023/06/16 08:55:33;;;;;;;0.17;0.17;;;22.20;87.20;;;;;;5088566;28;20052;-75
2023/06/16 08:58:00;;;;;;;0.32;0.30;;;22.10;87.10;;;;;;5054363;28;20122;-75
2023/06/16 09:00:27;;;;;;;0.55;0.55;;;22.20;89.00;;;;;;5071860;28;20083;-75
2023/06/16 09:02:56;;;;;;;0.30;0.30;;;22.30;88.10;;;;;;5054991;28;20063;-76
2023/06/16 09:05:24;;;;;;;1.00;1.00;;;22.30;88.10;;;;;;5072149;28;20036;-75
2023/06/16 09:07:50;;;;;;;0.60;0.60;;;22.30;87.50;;;;;;5088035;28;20083;-75
2023/06/16 09:10:16;;;;;;;3.28;0.80;;;22.30;86.40;;;;;;5087838;28;20267;-75
2023/06/16 09:12:42;;;;;;;0.82;0.32;;;22.30;85.20;;;;;;5071148;28;20468;-76
2023/06/16 09:15:10;;;;;;;1.10;0.80;;;22.30;84.60;;;;;;5087827;28;20044;-75
2023/06/16 09:17:39;;;;;;;0.45;0.40;;;22.30;84.00;;;;;;5071581;28;20113;-75
2023/06/16 09:20:12;;;;;;;0.20;0.20;;;22.30;82.80;;;;;;5087817;28;20044;-75
2023/06/16 09:22:39;;;;;;;0.50;0.50;;;22.30;85.00;;;;;;5088674;28;20094;-75
2023/06/16 09:25:05;;;;;;;0.30;0.30;;;22.30;83.90;;;;;;5053981;28;20044;-75
2023/06/16 09:27:54;;;;;;;1.48;0.50;;;22.40;83.30;;;;;;5088373;28;20040;-75
2023/06/16 09:30:21;;;;;;;0.30;0.30;;;22.50;84.40;;;;;;5071136;28;20206;-76
2023/06/16 09:32:53;;;;;;;0.30;0.30;;;22.60;84.10;;;;;;5090659;28;20032;-74
2023/06/16 09:35:28;;;;;;;0.45;0.45;;;22.60;83.30;;;;;;5091801;28;20106;-75
2023/06/16 09:37:56;;;;;;;0.52;0.52;;;22.60;83.50;;;;;;5074824;28;20489;-75
2023/06/16 09:40:27;;;;;;;0.82;0.82;;;22.60;83.80;;;;;;5091879;28;20044;-75
2023/06/16 09:42:54;;;;;;;0.30;0.30;;;22.70;83.50;;;;;;5092358;28;20428;-75
2023/06/16 09:45:20;;;;;;;0.68;0.68;;;22.80;84.10;;;;;;5091535;28;20044;-75
2023/06/16 09:47:50;;;;;;;0.50;0.50;;;22.90;83.60;;;;;;5091866;28;20382;-75
2023/06/16 09:50:25;;;;;;;0.75;0.75;;;22.90;83.10;;;;;;5074983;28;20468;-76
2023/06/16 09:52:53;;;;;;;0.30;0.30;;;22.80;81.50;;;;;;5107932;28;20046;-75
2023/06/16 09:55:19;;;;;;;0.47;0.47;;;22.70;80.70;;;;;;5091440;28;20427;-75
2023/06/16 09:57:46;;;;;;;0.75;0.40;;;22.60;79.10;;;;;;5092116;28;20377;-75
2023/06/16 10:00:17;;;;;;;0.52;0.32;;;22.60;78.50;;;;;;5075394;28;20051;-75
2023/06/16 10:02:47;;;;;;;0.30;0.22;;;22.50;78.20;;;;;;5092476;28;20150;-75
2023/06/16 10:05:15;;;;;;;0.47;0.47;;;22.60;77.80;;;;;;5091262;28;20043;-75
2023/06/16 10:07:43;;;;;;;0.45;0.45;;;22.70;77.50;;;;;;5091805;28;20088;-75
2023/06/16 10:10:11;;;;;;;0.47;0.47;;;22.80;76.40;;;;;;5090738;28;20036;-75
2023/06/16 10:12:39;;;;;;;0.30;0.30;;;23.00;76.50;;;;;;5074190;28;20611;-75
2023/06/16 10:15:09;;;;;;;0.63;0.47;;;23.00;76.50;;;;;;5090605;28;20073;-75
2023/06/16 10:17:37;;;;;;;0.40;0.40;;;23.10;77.30;;;;;;5074342;28;20043;-75
2023/06/16 10:20:08;;;;;;;0.25;0.25;;;23.20;77.00;;;;;;5057484;28;20055;-75
2023/06/16 10:22:34;;;;;;;1.67;1.58;;;23.30;77.40;;;;;;5091304;28;20055;-75
2023/06/16 10:25:02;;;;;;;0.22;0.22;;;23.40;76.10;;;;;;5090593;28;20492;-75
2023/06/16 10:27:28;;;;;;;4.75;0.88;;;23.40;76.60;;;;;;5107703;28;20051;-76
2023/06/16 10:29:55;;;;;;;0.60;0.60;;;23.50;75.50;;;;;;5091657;28;20101;-76
2023/06/16 10:32:21;;;;;;;0.30;0.30;;;23.70;74.30;;;;;;5125621;27;20079;-75
2023/06/16 10:34:51;;;;;;;0.65;0.65;;;23.70;74.20;;;;;;5075028;28;20447;-76
2023/06/16 10:37:18;;;;;;;1.25;0.70;;;23.70;74.30;;;;;;5058463;28;20050;-76
2023/06/16 10:39:45;;;;;;;2.22;1.75;;;23.60;73.80;;;;;;5091396;28;20107;-75
2023/06/16 10:42:13;;;;;;;0.40;0.40;;;23.60;74.40;;;;;;5073683;28;20036;-76
2023/06/16 10:44:39;;;;;;;1.88;1.77;;;23.60;72.50;;;;;;5072221;28;20039;-75
2023/06/16 10:47:11;;;;;;;0.50;0.50;;;23.60;72.40;;;;;;5090673;28;20079;-76
2023/06/16 10:50:00;;;;;;;0.68;0.68;;;23.50;72.80;;;;;;5090769;28;20066;-75
2023/06/16 10:52:28;;;;;;;4.63;1.05;;;23.50;72.80;;;;;;5103082;28;20140;-75
2023/06/16 10:54:55;;;;;;;0.35;0.35;;;23.70;73.20;;;;;;5075935;28;20039;-76
2023/06/16 10:57:25;;;;;;;0.20;0.20;;;23.80;71.80;;;;;;5090044;28;20508;-76
2023/06/16 11:00:10;;;;;;;0.20;0.20;;;23.90;70.60;;;;;;5090239;28;20047;-76
2023/06/16 11:02:37;;;;;;;2.28;0.50;;;23.90;71.60;;;;;;5090183;28;20044;-76
2023/06/16 11:05:12;;;;;;;0.80;0.80;;;24.10;70.80;;;;;;5089742;28;20036;-76
2023/06/16 11:07:39;;;;;;;0.30;0.30;;;24.20;70.20;;;;;;5090315;28;20079;-76
2023/06/16 11:10:09;;;;;;;0.30;0.30;;;24.30;69.50;;;;;;5072999;28;20036;-76
2023/06/16 11:12:37;;;;;;;0.60;0.60;;;24.20;69.40;;;;;;5089892;28;20564;-75
2023/06/16 11:15:04;;;;;;;0.47;0.47;;;24.30;68.00;;;;;;5090041;28;20044;-76
2023/06/16 11:17:31;;;;;;;0.20;0.20;;;24.40;69.00;;;;;;5072454;28;20052;-76
2023/06/16 11:19:57;;;;;;;0.68;0.68;;;24.50;67.30;;;;;;5089955;28;20169;-76
2023/06/16 11:22:36;;;;;;;0.20;0.20;;;24.40;68.30;;;;;;5073499;28;20046;-75
2023/06/16 11:25:06;;;;;;;0.55;0.55;;;24.50;66.80;;;;;;5073340;28;20040;-76
2023/06/16 11:27:32;;;;;;;0.50;0.40;;;24.50;64.20;;;;;;5090159;28;20063;-76
2023/06/16 11:30:00;;;;;;;0.20;0.20;;;24.40;65.40;;;;;;5089945;28;20084;-75
2023/06/16 11:32:27;;;;;;;0.40;0.40;;;24.40;62.20;;;;;;5089487;28;20112;-76
2023/06/16 11:34:55;;;;;;;0.82;0.82;;;24.30;63.20;;;;;;5089655;28;20480;-76
2023/06/16 11:37:21;;;;;;;0.25;0.25;;;24.40;63.10;;;;;;5072097;28;20040;-76
2023/06/16 11:39:47;;;;;;;0.50;0.50;;;24.50;61.50;;;;;;5073533;28;20445;-76
2023/06/16 11:42:16;;;;;;;1.45;1.00;;;24.50;61.60;;;;;;5072998;28;20126;-76
2023/06/16 11:44:42;;;;;;;0.50;0.50;;;24.60;61.60;;;;;;5089603;28;20047;-76
2023/06/16 11:47:09;;;;;;;0.60;0.60;;;24.50;60.90;;;;;;5072877;28;20386;-75
2023/06/16 11:49:36;;;;;;;0.70;0.70;;;24.60;60.20;;;;;;5055834;28;20052;-75
2023/06/16 11:52:06;;;;;;;1.42;1.33;;;24.60;60.10;;;;;;5089756;28;20119;-75
2023/06/16 11:54:33;;;;;;;0.50;0.50;;;24.60;59.90;;;;;;5072216;28;20131;-75
2023/06/16 11:57:02;;;;;;;0.90;0.90;;;24.70;58.90;;;;;;5088857;28;20090;-76
2023/06/16 11:59:30;;;;;;;0.30;0.30;;;24.70;58.30;;;;;;5071596;28;20048;-76
2023/06/16 12:01:57;;;;;;;0.47;0.47;;;24.70;59.20;;;;;;5072597;28;20493;-75
2023/06/16 12:04:25;;;;;;;0.30;0.30;;;24.70;58.30;;;;;;5088897;28;20058;-76
2023/06/16 12:06:52;;;;;;;0.20;0.20;;;24.80;58.60;;;;;;5088725;28;20040;-77
2023/06/16 12:09:19;;;;;;;0.38;0.38;;;24.90;58.80;;;;;;5071640;28;20081;-76
2023/06/16 12:11:46;;;;;;;1.65;1.00;;;25.00;57.90;;;;;;5088996;28;20076;-76
2023/06/16 12:14:20;;;;;;;0.10;0.10;;;25.00;58.00;;;;;;5088730;28;20078;-75
2023/06/16 12:16:50;;;;;;;0.22;0.22;;;25.20;58.30;;;;;;5089657;28;20048;-75
2023/06/16 12:19:18;;;;;;;0.40;0.40;;;25.30;58.30;;;;;;5088681;28;20043;-76
2023/06/16 12:21:51;;;;;;;1.52;1.40;;;25.30;58.30;;;;;;5088864;28;20551;-75
2023/06/16 12:24:22;;;;;;;0.15;0.15;;;25.50;59.00;;;;;;5088454;28;20052;-76
2023/06/16 12:26:51;;;;;;;0.30;0.30;;;25.70;58.60;;;;;;5071518;28;20044;-77
2023/06/16 12:29:18;;;;;;;0.30;0.30;;;25.80;56.80;;;;;;5088114;28;20095;-76
2023/06/16 12:32:00;;;;;;;1.05;0.80;;;25.80;57.90;;;;;;5088792;28;20144;-75
2023/06/16 12:34:30;;;;;;;1.02;0.85;;;25.90;57.10;;;;;;5071742;28;20062;-75
2023/06/16 12:37:06;;;;;;;0.45;0.45;;;25.80;57.40;;;;;;5088960;28;20056;-76
2023/06/16 12:39:32;;;;;;;0.50;0.38;;;26.00;56.60;;;;;;5089095;28;20040;-76
2023/06/16 12:42:06;;;;;;;0.60;0.50;;;26.00;57.00;;;;;;5088955;28;20097;-76
2023/06/16 12:44:49;;;;;;;0.40;0.40;;;25.90;57.70;;;;;;5088362;28;20043;-76
2023/06/16 12:47:17;;;;;;;0.20;0.20;;;25.90;58.30;;;;;;5071530;28;20051;-75
2023/06/16 12:49:43;;;;;;;0.85;0.65;;;25.90;56.90;;;;;;5088730;28;20362;-75
2023/06/16 12:52:11;;;;;;;1.75;0.50;;;25.90;58.00;;;;;;5071370;28;20042;-76
2023/06/16 12:54:37;;;;;;;0.40;0.40;;;26.00;57.30;;;;;;5054627;28;20101;-76
2023/06/16 12:57:03;;;;;;;0.40;0.40;;;26.00;57.50;;;;;;5088332;28;20127;-75
2023/06/16 12:59:29;;;;;;;0.52;0.43;;;26.10;57.20;;;;;;5071403;28;20127;-76
2023/06/16 13:01:55;;;;;;;0.38;0.38;;;26.10;58.40;;;;;;5071478;28;20040;-75